Time;durP1;ratioP1;P1;durP2;ratioP2;P2;SDS_P1;SDS_P2;PMS_P1;PMS_P2;Temp;Humidity;BMP_temperature;BMP_pressure;BME280_temperature;BME280_humidity;BME280_pressure;Samples;Min_cycle;Max_cycle;Signal;HPM_P1;HPM_P2
2021/01/23 00:01:44;;;;;;;5.40;3.63;;;6.80;74.10;;;;;;4993070;28;20486;-75
2021/01/23 00:04:09;;;;;;;5.80;3.83;;;6.80;74.20;;;;;;4994148;28;20042;-74
2021/01/23 00:06:35;;;;;;;7.40;3.97;;;6.80;74.70;;;;;;4993873;28;20053;-75
2021/01/23 00:09:01;;;;;;;8.85;4.80;;;6.80;74.80;;;;;;4992846;28;20037;-74
2021/01/23 00:11:27;;;;;;;9.80;4.90;;;6.60;75.70;;;;;;4992506;28;20026;-75
2021/01/23 00:13:52;;;;;;;10.85;5.03;;;6.50;76.50;;;;;;4994315;28;20027;-74
2021/01/23 00:16:18;;;;;;;8.95;5.65;;;6.40;77.10;;;;;;4993810;28;20050;-74
2021/01/23 00:18:44;;;;;;;8.32;5.25;;;6.40;77.70;;;;;;4993964;28;20026;-74
2021/01/23 00:21:10;;;;;;;10.88;6.05;;;6.20;78.60;;;;;;4992389;28;20472;-74
2021/01/23 00:23:35;;;;;;;13.07;5.57;;;6.10;79.30;;;;;;4993982;28;20038;-74
2021/01/23 00:26:01;;;;;;;9.05;5.72;;;6.10;80.00;;;;;;4976250;28;20033;-75
2021/01/23 00:28:27;;;;;;;9.57;5.38;;;5.90;80.30;;;;;;4992232;28;20509;-74
2021/01/23 00:30:53;;;;;;;11.65;6.72;;;5.80;81.50;;;;;;4993746;28;20023;-74
2021/01/23 00:33:19;;;;;;;9.05;6.05;;;5.60;82.50;;;;;;4993725;28;20073;-75
2021/01/23 00:35:44;;;;;;;9.40;6.25;;;5.70;82.70;;;;;;4993597;28;20049;-74
2021/01/23 00:38:10;;;;;;;11.38;6.25;;;5.60;83.60;;;;;;4993292;28;20042;-74
2021/01/23 00:40:36;;;;;;;12.38;6.93;;;5.70;83.50;;;;;;4992374;28;20125;-74
2021/01/23 00:43:02;;;;;;;12.20;7.35;;;5.60;83.60;;;;;;4993299;28;20724;-74
2021/01/23 00:45:27;;;;;;;12.82;7.30;;;5.50;84.30;;;;;;4993482;28;20626;-75
2021/01/23 00:47:53;;;;;;;12.80;7.95;;;5.40;85.10;;;;;;4993095;28;20389;-74
2021/01/23 00:50:19;;;;;;;13.88;8.63;;;5.30;86.40;;;;;;4993622;28;20029;-74
2021/01/23 00:52:44;;;;;;;15.68;10.60;;;5.30;86.80;;;;;;4993034;28;20097;-74
2021/01/23 00:55:11;;;;;;;16.02;10.63;;;5.10;87.60;;;;;;4992121;28;20383;-74
2021/01/23 00:57:37;;;;;;;19.08;12.57;;;5.00;89.00;;;;;;4992943;28;20034;-74
2021/01/23 01:00:06;;;;;;;21.05;13.70;;;4.90;89.70;;;;;;4993419;28;20368;-74
2021/01/23 01:02:32;;;;;;;22.25;15.00;;;4.90;90.20;;;;;;4993613;28;20022;-74
2021/01/23 01:04:57;;;;;;;22.95;17.23;;;4.80;91.00;;;;;;4993767;28;20507;-74
2021/01/23 01:07:23;;;;;;;23.42;16.83;;;4.60;92.00;;;;;;4992414;28;20029;-74
2021/01/23 01:09:49;;;;;;;27.80;19.17;;;4.60;93.90;;;;;;4993088;28;20031;-74
2021/01/23 01:12:14;;;;;;;27.73;18.25;;;4.70;95.50;;;;;;4992816;28;20092;-73
2021/01/23 01:14:40;;;;;;;30.73;20.08;;;4.80;96.10;;;;;;4992783;28;20376;-75
2021/01/23 01:17:06;;;;;;;29.77;19.95;;;4.60;99.20;;;;;;4992907;28;20030;-75
2021/01/23 01:19:31;;;;;;;30.23;20.88;;;4.40;99.90;;;;;;4992693;28;20105;-74
2021/01/23 01:21:57;;;;;;;32.20;23.48;;;4.40;99.90;;;;;;4992754;28;20092;-75
2021/01/23 01:24:23;;;;;;;32.15;22.65;;;4.40;99.90;;;;;;4991217;28;20084;-74
2021/01/23 01:26:48;;;;;;;36.00;22.98;;;4.40;99.90;;;;;;4992702;28;20034;-74
2021/01/23 01:29:14;;;;;;;38.80;24.17;;;4.40;99.90;;;;;;4990862;28;20045;-75
2021/01/23 01:31:40;;;;;;;33.47;23.08;;;4.50;99.90;;;;;;4992552;28;20505;-74
2021/01/23 01:34:06;;;;;;;37.70;24.17;;;4.40;99.90;;;;;;4991005;28;20037;-74
2021/01/23 01:36:31;;;;;;;39.13;26.40;;;4.40;99.90;;;;;;4992421;28;20125;-74
2021/01/23 01:38:57;;;;;;;40.92;27.02;;;4.30;99.90;;;;;;4992578;28;20023;-75
2021/01/23 01:41:23;;;;;;;46.92;27.35;;;4.30;99.90;;;;;;4992173;28;20076;-74
2021/01/23 01:43:48;;;;;;;44.15;27.60;;;4.20;99.90;;;;;;4992360;28;20033;-74
2021/01/23 01:46:14;;;;;;;44.58;26.70;;;4.30;99.90;;;;;;4992391;28;20549;-74
2021/01/23 01:48:41;;;;;;;41.28;28.48;;;4.20;99.90;;;;;;4992151;28;20031;-74
2021/01/23 01:51:06;;;;;;;39.38;27.90;;;4.20;99.90;;;;;;4992141;28;20038;-74
2021/01/23 01:53:33;;;;;;;43.03;28.58;;;4.20;99.90;;;;;;4990901;28;20022;-74
2021/01/23 01:55:59;;;;;;;42.72;28.08;;;4.20;99.90;;;;;;4992367;28;20507;-74
2021/01/23 01:58:25;;;;;;;41.53;27.40;;;4.30;99.90;;;;;;4992163;28;20027;-74
2021/01/23 02:00:52;;;;;;;44.67;27.48;;;4.20;99.90;;;;;;4990597;28;20037;-75
2021/01/23 02:03:41;;;;;;;42.58;26.55;;;4.20;99.90;;;;;;4992350;28;20026;-75
2021/01/23 02:06:31;;;;;;;39.35;26.13;;;4.40;99.90;;;;;;4991693;28;20022;-74
2021/01/23 02:09:07;;;;;;;38.95;26.20;;;4.40;99.90;;;;;;4991963;28;20039;-74
2021/01/23 02:11:36;;;;;;;42.03;25.08;;;4.30;99.90;;;;;;4991656;28;20029;-74
2021/01/23 02:14:23;;;;;;;36.72;24.05;;;4.40;99.90;;;;;;4974540;28;20486;-74
2021/01/23 02:16:51;;;;;;;34.45;21.45;;;4.30;99.90;;;;;;4991679;28;20045;-73
2021/01/23 02:19:56;;;;;;;27.10;17.73;;;4.20;99.90;;;;;;4991874;28;20026;-74
2021/01/23 02:22:32;;;;;;;25.17;16.73;;;4.10;99.90;;;;;;4990426;28;20041;-74
2021/01/23 02:25:00;;;;;;;22.60;13.85;;;4.00;99.90;;;;;;4991441;28;20030;-74
2021/01/23 02:27:48;;;;;;;17.35;12.45;;;4.10;99.90;;;;;;4991629;28;20033;-74
2021/01/23 02:30:37;;;;;;;16.58;11.63;;;4.10;99.90;;;;;;4991705;28;20018;-75
2021/01/23 02:33:05;;;;;;;18.33;11.35;;;4.00;99.90;;;;;;4991672;28;20490;-73
2021/01/23 02:35:31;;;;;;;11.45;8.65;;;3.80;99.90;;;;;;4991697;28;20676;-75
2021/01/23 02:37:57;;;;;;;9.68;7.00;;;3.80;99.90;;;;;;5022799;23;20458;-74
2021/01/23 02:40:23;;;;;;;10.68;6.97;;;3.50;99.90;;;;;;5030971;28;20112;-74
2021/01/23 02:42:49;;;;;;;8.70;5.70;;;3.50;99.90;;;;;;5030913;28;20022;-75
2021/01/23 02:45:15;;;;;;;7.40;4.45;;;3.50;99.90;;;;;;5031306;28;20049;-73
2021/01/23 02:47:41;;;;;;;5.28;3.83;;;3.50;99.90;;;;;;4996950;28;20424;-73
2021/01/23 02:50:09;;;;;;;3.78;3.38;;;3.50;99.90;;;;;;5031226;28;20028;-74
2021/01/23 02:52:49;;;;;;;4.43;3.20;;;3.40;99.90;;;;;;5031172;28;20022;-74
2021/01/23 02:55:23;;;;;;;4.25;3.67;;;3.30;99.90;;;;;;5013837;28;20042;-74
2021/01/23 02:57:52;;;;;;;7.10;3.17;;;3.30;99.90;;;;;;5030971;28;20111;-75
2021/01/23 03:00:19;;;;;;;3.42;2.95;;;3.20;99.90;;;;;;5029707;28;20028;-74
2021/01/23 03:02:53;;;;;;;3.10;2.80;;;3.10;99.90;;;;;;5012892;28;20030;-75
2021/01/23 03:05:22;;;;;;;3.42;2.58;;;3.00;99.90;;;;;;5031154;28;20389;-75
2021/01/23 03:07:51;;;;;;;3.78;3.28;;;3.00;99.90;;;;;;5030384;28;20535;-74
2021/01/23 03:10:17;;;;;;;3.17;2.63;;;2.90;99.90;;;;;;5013323;28;20056;-74
2021/01/23 03:12:42;;;;;;;6.53;3.08;;;2.90;99.90;;;;;;5029305;28;20029;-74
2021/01/23 03:15:10;;;;;;;3.58;2.83;;;2.80;99.90;;;;;;5013039;28;20030;-75
2021/01/23 03:17:35;;;;;;;3.10;2.80;;;2.80;99.90;;;;;;5030868;28;20059;-75
2021/01/23 03:20:02;;;;;;;2.50;2.17;;;2.90;99.90;;;;;;5030622;28;20034;-74
2021/01/23 03:22:28;;;;;;;2.33;1.77;;;2.90;99.90;;;;;;5030713;28;20420;-74
2021/01/23 03:24:53;;;;;;;1.50;1.40;;;2.70;99.90;;;;;;5030484;28;20059;-75
2021/01/23 03:27:19;;;;;;;1.52;1.42;;;2.80;99.90;;;;;;5013040;28;20021;-75
2021/01/23 03:29:45;;;;;;;1.40;1.30;;;2.90;99.90;;;;;;5012565;28;20109;-74
2021/01/23 03:32:11;;;;;;;1.77;1.65;;;2.80;99.90;;;;;;5030588;28;20533;-75
2021/01/23 03:34:36;;;;;;;1.20;1.10;;;2.80;99.90;;;;;;5013844;28;20032;-75
2021/01/23 03:37:02;;;;;;;0.98;0.95;;;2.70;99.90;;;;;;5034224;28;20409;-75
2021/01/23 03:39:28;;;;;;;0.85;0.73;;;2.80;99.90;;;;;;5032750;28;20030;-75
2021/01/23 03:41:53;;;;;;;2.33;0.77;;;2.60;99.90;;;;;;5034257;28;20253;-75
2021/01/23 03:44:19;;;;;;;0.60;0.60;;;2.50;99.90;;;;;;5033912;28;20104;-75
2021/01/23 03:46:45;;;;;;;0.63;0.60;;;2.40;99.90;;;;;;5034341;28;20076;-75
2021/01/23 03:49:10;;;;;;;0.80;0.80;;;2.40;99.90;;;;;;5033742;28;20053;-74
2021/01/23 03:51:36;;;;;;;0.60;0.60;;;2.40;99.90;;;;;;5016489;28;20096;-75
2021/01/23 03:54:02;;;;;;;0.47;0.47;;;2.40;99.90;;;;;;5034025;28;20370;-75
2021/01/23 03:56:28;;;;;;;0.57;0.57;;;2.40;99.90;;;;;;4999647;28;20108;-75
2021/01/23 03:58:53;;;;;;;0.75;0.75;;;2.30;99.90;;;;;;5033933;28;20043;-75
2021/01/23 04:01:19;;;;;;;0.50;0.50;;;2.30;99.90;;;;;;5032675;28;20025;-75
2021/01/23 04:03:45;;;;;;;2.08;0.63;;;2.40;99.90;;;;;;5032732;28;20026;-75
2021/01/23 04:06:11;;;;;;;0.70;0.70;;;2.10;99.90;;;;;;5033708;28;20026;-75
2021/01/23 04:08:36;;;;;;;0.93;0.70;;;2.00;99.90;;;;;;5033748;28;20370;-75
2021/01/23 04:11:03;;;;;;;0.70;0.70;;;2.10;99.90;;;;;;5033606;28;20025;-75
2021/01/23 04:13:28;;;;;;;0.70;0.70;;;2.00;99.90;;;;;;5016036;28;20052;-75
2021/01/23 04:15:54;;;;;;;0.70;0.70;;;1.90;99.90;;;;;;5015773;28;20022;-75
2021/01/23 04:18:20;;;;;;;0.90;0.90;;;2.00;99.90;;;;;;5033798;28;20105;-75
2021/01/23 04:20:46;;;;;;;0.95;0.95;;;1.90;99.90;;;;;;5033514;28;20036;-75
2021/01/23 04:23:12;;;;;;;0.80;0.80;;;1.80;99.90;;;;;;5015873;28;20433;-75
2021/01/23 04:25:38;;;;;;;0.60;0.60;;;1.70;99.90;;;;;;5033771;28;20112;-74
2021/01/23 04:28:04;;;;;;;0.75;0.75;;;1.80;99.90;;;;;;5034102;28;20083;-75
2021/01/23 04:30:29;;;;;;;0.70;0.70;;;1.80;99.90;;;;;;5033985;28;20485;-75
2021/01/23 04:32:55;;;;;;;0.63;0.63;;;1.90;99.90;;;;;;5015558;28;20032;-75
2021/01/23 04:35:21;;;;;;;0.80;0.80;;;1.80;99.90;;;;;;5034040;28;20044;-75
2021/01/23 04:37:46;;;;;;;0.77;0.77;;;1.80;99.90;;;;;;5034059;28;20049;-76
2021/01/23 04:40:13;;;;;;;0.70;0.70;;;1.90;99.90;;;;;;5034318;28;20105;-76
2021/01/23 04:42:42;;;;;;;0.70;0.70;;;1.80;99.90;;;;;;5034121;28;20535;-76
2021/01/23 04:45:10;;;;;;;0.60;0.60;;;1.70;99.90;;;;;;5034671;28;20045;-75
2021/01/23 04:47:36;;;;;;;0.50;0.50;;;1.70;99.90;;;;;;5015610;28;20017;-75
2021/01/23 04:50:06;;;;;;;0.90;0.90;;;1.60;99.90;;;;;;5034028;28;20074;-76
2021/01/23 04:52:39;;;;;;;0.70;0.70;;;1.60;99.90;;;;;;5033795;28;20027;-75
2021/01/23 04:55:06;;;;;;;0.68;0.68;;;1.60;99.90;;;;;;5033854;28;20033;-75
2021/01/23 04:57:32;;;;;;;0.70;0.70;;;1.60;99.90;;;;;;5016037;28;20064;-76
2021/01/23 04:59:58;;;;;;;0.90;0.68;;;1.70;99.90;;;;;;5016178;28;20438;-76
2021/01/23 05:02:24;;;;;;;0.85;0.85;;;1.70;99.90;;;;;;5032511;28;20555;-75
2021/01/23 05:05:06;;;;;;;0.70;0.70;;;1.70;99.90;;;;;;5015972;28;20028;-76
2021/01/23 05:07:36;;;;;;;0.88;0.88;;;1.60;99.90;;;;;;5015741;28;20033;-75
2021/01/23 05:10:16;;;;;;;0.60;0.60;;;1.70;99.90;;;;;;5033743;28;20032;-76
2021/01/23 05:12:43;;;;;;;1.17;0.80;;;1.80;99.90;;;;;;5032079;28;20396;-75
2021/01/23 05:15:26;;;;;;;0.82;0.82;;;1.80;99.90;;;;;;5033454;28;20055;-75
2021/01/23 05:17:53;;;;;;;1.48;0.90;;;1.80;99.90;;;;;;5033535;28;20469;-76
2021/01/23 05:20:37;;;;;;;0.70;0.70;;;1.80;99.90;;;;;;5033438;28;20104;-75
2021/01/23 05:23:04;;;;;;;0.90;0.90;;;1.80;99.90;;;;;;5015608;28;20477;-76
2021/01/23 05:25:31;;;;;;;0.98;0.98;;;1.70;99.90;;;;;;5015722;28;20064;-76
2021/01/23 05:27:58;;;;;;;0.90;0.90;;;1.60;99.90;;;;;;5033258;28;20036;-75
2021/01/23 05:30:25;;;;;;;1.10;1.00;;;1.70;99.90;;;;;;5015605;28;20029;-76
2021/01/23 05:33:14;;;;;;;1.10;1.00;;;1.70;99.90;;;;;;5033371;28;20083;-76
2021/01/23 05:35:41;;;;;;;0.93;0.93;;;1.70;99.90;;;;;;5015989;28;20045;-75
2021/01/23 05:38:27;;;;;;;0.70;0.70;;;1.70;99.90;;;;;;5033154;28;20037;-76
2021/01/23 05:41:08;;;;;;;1.00;1.00;;;1.60;99.90;;;;;;5033156;28;20432;-76
2021/01/23 05:43:34;;;;;;;0.80;0.80;;;1.60;99.90;;;;;;5033373;28;20469;-75
2021/01/23 05:46:04;;;;;;;1.80;1.10;;;1.60;99.90;;;;;;5033096;28;20084;-75
2021/01/23 05:48:31;;;;;;;1.05;0.95;;;1.70;99.90;;;;;;5015417;28;20025;-75
2021/01/23 05:50:56;;;;;;;1.05;1.05;;;1.70;99.90;;;;;;4998792;28;20087;-75
2021/01/23 05:53:22;;;;;;;1.52;1.30;;;1.70;99.90;;;;;;5015333;28;20021;-76
2021/01/23 05:55:48;;;;;;;1.00;1.00;;;1.60;99.90;;;;;;5014855;28;20045;-76
2021/01/23 05:58:14;;;;;;;1.30;1.20;;;1.60;99.90;;;;;;5014065;28;20393;-76
2021/01/23 06:00:40;;;;;;;2.20;1.50;;;1.70;99.90;;;;;;5015073;28;20025;-76
2021/01/23 06:03:06;;;;;;;1.42;0.88;;;1.80;99.90;;;;;;5015420;28;20083;-76
2021/01/23 06:05:32;;;;;;;1.13;1.02;;;1.70;99.90;;;;;;5014916;28;20021;-75
2021/01/23 06:07:58;;;;;;;0.77;0.75;;;1.60;99.90;;;;;;5033137;28;20099;-76
2021/01/23 06:10:24;;;;;;;0.90;0.90;;;1.70;99.90;;;;;;5032663;28;20025;-76
2021/01/23 06:12:54;;;;;;;1.73;1.30;;;1.80;99.90;;;;;;5015161;28;20067;-76
2021/01/23 06:15:32;;;;;;;2.22;1.42;;;1.80;99.90;;;;;;5014678;28;20029;-76
2021/01/23 06:18:08;;;;;;;1.23;1.10;;;1.50;99.90;;;;;;5032457;28;20434;-76
2021/01/23 06:20:40;;;;;;;1.00;1.00;;;1.60;99.90;;;;;;5031365;28;20072;-76
2021/01/23 06:23:09;;;;;;;;;;;1.70;99.90;;;;;;5015441;28;20028;-76
2021/01/23 06:25:50;;;;;;;2.13;1.10;;;1.90;99.90;;;;;;5031384;28;19906;-76
2021/01/23 06:28:22;;;;;;;1.00;1.00;;;1.80;99.90;;;;;;5014783;28;20026;-76
2021/01/23 06:30:49;;;;;;;1.23;1.00;;;1.80;99.90;;;;;;5014690;28;20022;-76
2021/01/23 06:33:24;;;;;;;1.17;1.08;;;1.80;99.90;;;;;;5014667;28;20029;-76
2021/01/23 06:36:02;;;;;;;1.33;1.23;;;1.70;99.90;;;;;;5014422;28;20442;-77
2021/01/23 06:38:31;;;;;;;6.65;1.50;;;1.70;99.90;;;;;;5031539;28;20118;-76
2021/01/23 06:41:25;;;;;;;1.30;1.20;;;1.70;99.90;;;;;;5014699;28;20397;-76
2021/01/23 06:44:25;;;;;;;0.90;0.90;;;1.70;99.90;;;;;;5013911;28;20021;-75
2021/01/23 06:46:51;;;;;;;1.15;1.10;;;1.70;99.90;;;;;;5031377;28;20030;-75
2021/01/23 06:49:17;;;;;;;1.67;1.10;;;1.70;99.90;;;;;;5031562;28;20044;-75
2021/01/23 06:51:43;;;;;;;1.13;1.10;;;1.80;99.90;;;;;;5013403;28;20026;-75
2021/01/23 06:54:21;;;;;;;3.95;1.10;;;1.80;99.90;;;;;;5031428;28;20040;-75
2021/01/23 06:56:49;;;;;;;1.20;1.10;;;1.70;99.90;;;;;;5013485;28;20453;-76
2021/01/23 06:59:28;;;;;;;2.35;1.20;;;1.70;99.90;;;;;;5013654;28;20389;-75
2021/01/23 07:02:06;;;;;;;1.50;1.40;;;1.80;99.90;;;;;;5013498;28;20492;-75
2021/01/23 07:04:33;;;;;;;1.90;1.10;;;1.90;99.90;;;;;;5031443;28;20029;-75
2021/01/23 07:07:05;;;;;;;0.80;0.80;;;1.90;99.90;;;;;;5013514;28;20418;-75
2021/01/23 07:09:51;;;;;;;1.42;1.23;;;1.90;99.90;;;;;;5032217;28;20025;-75
2021/01/23 07:12:49;;;;;;;1.08;1.00;;;2.00;99.90;;;;;;5017310;28;20096;-75
2021/01/23 07:15:35;;;;;;;1.35;1.25;;;1.90;99.90;;;;;;5033932;28;20392;-75
2021/01/23 07:18:14;;;;;;;6.50;1.60;;;1.90;99.90;;;;;;5034968;28;20021;-75
2021/01/23 07:20:40;;;;;;;5.32;1.73;;;1.90;99.90;;;;;;5034836;28;20033;-75
2021/01/23 07:23:06;;;;;;;1.80;1.58;;;1.70;99.90;;;;;;5034768;28;20033;-75
2021/01/23 07:25:32;;;;;;;1.20;1.10;;;1.80;99.90;;;;;;5017073;28;20018;-75
2021/01/23 07:27:58;;;;;;;1.65;1.42;;;1.90;99.90;;;;;;5034695;28;20022;-74
2021/01/23 07:30:25;;;;;;;4.32;2.72;;;2.00;99.90;;;;;;5017124;28;20033;-75
2021/01/23 07:32:50;;;;;;;2.95;1.65;;;2.00;99.90;;;;;;5034923;28;20369;-74
2021/01/23 07:35:17;;;;;;;2.65;1.60;;;1.90;99.90;;;;;;5034608;28;20035;-75
2021/01/23 07:38:00;;;;;;;3.92;2.03;;;1.80;99.90;;;;;;5034736;28;20036;-75
2021/01/23 07:40:29;;;;;;;4.45;1.70;;;1.80;99.90;;;;;;5035688;28;20045;-74
2021/01/23 07:43:00;;;;;;;3.00;1.30;;;1.90;99.90;;;;;;5034371;28;20057;-75
2021/01/23 07:45:26;;;;;;;2.05;1.60;;;1.90;99.90;;;;;;5033748;28;20457;-75
2021/01/23 07:48:04;;;;;;;1.17;1.08;;;1.90;99.90;;;;;;5034523;28;20053;-75
2021/01/23 07:50:45;;;;;;;2.50;1.70;;;1.80;99.90;;;;;;5034390;28;20432;-75
2021/01/23 07:53:15;;;;;;;4.72;1.63;;;1.70;99.90;;;;;;5016921;28;20018;-75
2021/01/23 07:55:41;;;;;;;1.08;1.08;;;1.80;99.90;;;;;;5034540;28;20035;-75
2021/01/23 07:58:08;;;;;;;2.10;1.35;;;1.80;99.90;;;;;;5034437;28;20109;-74
2021/01/23 08:00:34;;;;;;;1.90;1.10;;;1.90;99.90;;;;;;5034392;28;20024;-75
2021/01/23 08:03:00;;;;;;;2.45;1.40;;;2.00;99.90;;;;;;5034325;28;20022;-75
2021/01/23 08:06:01;;;;;;;4.35;1.90;;;2.00;99.90;;;;;;5034043;28;20013;-75
2021/01/23 08:08:31;;;;;;;5.43;2.75;;;2.10;99.90;;;;;;4972669;28;20027;-75
2021/01/23 08:11:01;;;;;;;2.15;1.40;;;1.90;99.90;;;;;;5023264;28;20103;-75
2021/01/23 08:13:29;;;;;;;4.32;1.27;;;1.90;99.90;;;;;;5034045;28;20032;-75
2021/01/23 08:16:09;;;;;;;0.88;0.88;;;2.10;99.90;;;;;;5033885;28;20022;-75
2021/01/23 08:18:35;;;;;;;3.22;1.80;;;2.20;99.90;;;;;;5016377;28;20112;-75
2021/01/23 08:21:01;;;;;;;10.73;2.00;;;2.30;99.90;;;;;;5032860;28;20041;-75
2021/01/23 08:23:33;;;;;;;5.28;1.20;;;2.40;99.90;;;;;;5033680;28;20036;-74
2021/01/23 08:26:00;;;;;;;;;;;2.20;99.90;;;;;;5015788;28;20480;-74
2021/01/23 08:28:32;;;;;;;4.50;1.45;;;2.30;99.90;;;;;;5033220;28;19963;-75
2021/01/23 08:31:23;;;;;;;1.77;1.30;;;2.20;99.90;;;;;;5015568;28;20500;-75
2021/01/23 08:33:55;;;;;;;1.30;1.20;;;2.30;99.90;;;;;;5015997;28;20093;-75
2021/01/23 08:36:31;;;;;;;1.83;1.30;;;2.50;99.90;;;;;;5016020;28;20021;-75
2021/01/23 08:39:02;;;;;;;8.95;1.50;;;2.70;99.90;;;;;;5071711;23;20100;-76
2021/01/23 08:41:28;;;;;;;3.97;1.38;;;2.70;99.90;;;;;;5054569;28;20107;-75
2021/01/23 08:43:54;;;;;;;1.38;1.23;;;2.80;99.90;;;;;;5054891;28;20032;-75
2021/01/23 08:46:19;;;;;;;2.25;1.60;;;2.80;99.90;;;;;;5072436;28;20075;-75
2021/01/23 08:48:46;;;;;;;1.30;1.30;;;2.80;99.90;;;;;;5054712;28;20103;-74
2021/01/23 08:51:11;;;;;;;4.10;1.50;;;2.70;99.90;;;;;;5054410;28;20589;-75
2021/01/23 08:53:37;;;;;;;7.88;1.95;;;3.00;99.90;;;;;;5055360;28;20024;-74
2021/01/23 08:56:03;;;;;;;1.80;1.20;;;3.10;99.90;;;;;;5072203;28;20438;-74
2021/01/23 08:58:29;;;;;;;1.25;1.20;;;3.00;99.90;;;;;;5055080;28;20024;-75
2021/01/23 09:00:55;;;;;;;1.58;1.45;;;2.80;99.90;;;;;;5054864;28;20082;-74
2021/01/23 09:03:20;;;;;;;1.67;1.58;;;2.70;99.90;;;;;;5072408;28;20025;-75
2021/01/23 09:05:46;;;;;;;3.67;2.25;;;2.60;99.90;;;;;;5054798;28;20029;-75
2021/01/23 09:08:12;;;;;;;9.80;3.65;;;2.70;99.90;;;;;;5054550;28;20024;-75
2021/01/23 09:10:38;;;;;;;3.97;2.40;;;2.70;99.90;;;;;;5072672;28;20155;-75
2021/01/23 09:13:06;;;;;;;2.70;1.95;;;2.80;99.90;;;;;;5054248;28;20024;-72
2021/01/23 09:15:31;;;;;;;1.90;1.80;;;2.80;99.90;;;;;;5072042;28;20103;-72
2021/01/23 09:17:57;;;;;;;1.77;1.67;;;2.60;99.90;;;;;;5042354;28;20166;-74
2021/01/23 09:20:23;;;;;;;3.50;2.75;;;2.60;99.90;;;;;;5066467;28;20060;-74
2021/01/23 09:22:49;;;;;;;14.27;2.40;;;2.70;99.90;;;;;;5059435;28;20021;-75
2021/01/23 09:25:15;;;;;;;2.45;2.00;;;2.70;99.90;;;;;;5037493;28;20028;-74
2021/01/23 09:27:40;;;;;;;4.05;2.10;;;2.60;99.90;;;;;;5056749;28;20035;-75
2021/01/23 09:30:07;;;;;;;3.95;2.55;;;2.60;99.90;;;;;;5074231;28;20028;-74
2021/01/23 09:32:32;;;;;;;3.92;2.78;;;2.60;99.90;;;;;;5074508;28;20027;-75
2021/01/23 09:34:58;;;;;;;5.88;3.03;;;2.60;99.90;;;;;;5048395;28;20413;-74
2021/01/23 09:37:25;;;;;;;17.45;3.70;;;2.90;99.90;;;;;;5053966;28;20024;-72
2021/01/23 09:39:52;;;;;;;3.22;2.72;;;3.00;99.90;;;;;;5053735;28;20051;-72
2021/01/23 09:42:18;;;;;;;5.35;3.17;;;2.90;99.90;;;;;;5071692;28;20265;-72
2021/01/23 09:44:44;;;;;;;2.83;2.55;;;2.90;99.90;;;;;;5071030;28;20024;-72
2021/01/23 09:47:12;;;;;;;2.58;2.33;;;2.80;99.90;;;;;;5071733;28;20025;-72
2021/01/23 09:49:38;;;;;;;3.20;2.50;;;2.90;99.90;;;;;;5036235;28;20051;-72
2021/01/23 09:52:04;;;;;;;7.95;3.03;;;2.80;99.90;;;;;;5074341;28;20017;-72
2021/01/23 09:54:30;;;;;;;5.28;3.15;;;3.10;99.90;;;;;;5036574;28;20314;-72
2021/01/23 09:56:56;;;;;;;2.75;2.40;;;3.30;99.90;;;;;;5071510;28;20028;-72
2021/01/23 09:59:21;;;;;;;2.30;2.10;;;3.40;99.90;;;;;;5070927;28;20029;-72
2021/01/23 10:01:47;;;;;;;3.17;2.88;;;3.40;99.90;;;;;;5071446;28;20025;-72
2021/01/23 10:04:13;;;;;;;3.28;2.97;;;3.30;99.90;;;;;;5071024;28;20107;-72
2021/01/23 10:06:38;;;;;;;4.60;2.80;;;3.30;99.90;;;;;;5053781;28;20031;-72
2021/01/23 10:09:04;;;;;;;3.63;2.80;;;3.30;99.90;;;;;;5053536;28;20032;-75
2021/01/23 10:11:30;;;;;;;4.10;3.35;;;3.20;99.90;;;;;;5053468;28;20017;-75
2021/01/23 10:13:56;;;;;;;5.10;3.45;;;3.00;99.90;;;;;;5071435;28;20468;-72
2021/01/23 10:16:21;;;;;;;6.20;3.85;;;3.00;99.90;;;;;;5071066;28;20027;-73
2021/01/23 10:18:47;;;;;;;4.60;4.20;;;3.00;99.90;;;;;;5071377;28;20031;-72
2021/01/23 10:21:13;;;;;;;5.63;3.28;;;3.10;99.90;;;;;;5053198;28;20040;-72
2021/01/23 10:23:39;;;;;;;3.53;3.03;;;3.50;99.90;;;;;;5053223;28;20032;-73
2021/01/23 10:26:04;;;;;;;4.30;3.28;;;3.20;99.90;;;;;;5061146;28;20477;-72
2021/01/23 10:28:30;;;;;;;9.25;3.38;;;3.10;99.90;;;;;;5073232;28;20034;-72
2021/01/23 10:30:56;;;;;;;10.07;4.60;;;3.20;99.90;;;;;;5091199;28;20021;-73
2021/01/23 10:33:22;;;;;;;6.07;3.22;;;3.20;99.90;;;;;;5091547;28;20024;-73
2021/01/23 10:35:48;;;;;;;4.25;3.60;;;3.20;99.90;;;;;;5072919;28;20021;-73
2021/01/23 10:38:14;;;;;;;6.20;3.97;;;3.10;99.90;;;;;;5091029;28;20044;-74
2021/01/23 10:40:40;;;;;;;9.15;4.38;;;2.90;99.90;;;;;;5056084;28;20077;-74
2021/01/23 10:43:05;;;;;;;10.40;4.75;;;3.00;99.90;;;;;;5091347;28;20051;-74
2021/01/23 10:45:31;;;;;;;6.13;4.18;;;3.20;99.90;;;;;;5090213;28;20064;-74
2021/01/23 10:47:57;;;;;;;7.32;4.03;;;3.20;99.90;;;;;;5073287;28;20428;-74
2021/01/23 10:50:23;;;;;;;5.95;4.15;;;3.20;99.90;;;;;;5087961;28;20020;-73
2021/01/23 10:52:49;;;;;;;3.92;3.30;;;3.40;99.90;;;;;;5051433;28;20061;-73
2021/01/23 10:55:15;;;;;;;8.48;4.57;;;3.40;99.90;;;;;;5053863;28;20391;-74
2021/01/23 10:57:40;;;;;;;6.25;4.10;;;3.50;99.90;;;;;;5070684;28;20046;-74
2021/01/23 11:00:07;;;;;;;5.95;3.20;;;3.90;99.90;;;;;;5050867;28;20020;-75
2021/01/23 11:02:40;;;;;;;2.78;2.53;;;4.20;99.90;;;;;;5051561;28;20472;-73
2021/01/23 11:05:07;;;;;;;3.83;2.60;;;5.10;99.90;;;;;;5052394;28;20161;-73
2021/01/23 11:07:33;;;;;;;5.40;1.83;;;6.20;98.00;;;;;;5035025;28;20403;-73
2021/01/23 11:09:59;;;;;;;2.88;2.00;;;7.10;91.90;;;;;;5070508;28;20021;-73
2021/01/23 11:12:24;;;;;;;4.05;2.35;;;7.20;88.80;;;;;;5052684;28;20027;-73
2021/01/23 11:14:50;;;;;;;5.78;3.30;;;7.90;89.40;;;;;;5053180;28;20021;-73
2021/01/23 11:17:16;;;;;;;5.47;3.42;;;8.40;82.70;;;;;;5068000;28;20384;-73
2021/01/23 11:19:42;;;;;;;4.32;2.75;;;8.00;81.80;;;;;;5070325;28;20024;-73
2021/01/23 11:22:08;;;;;;;3.53;2.22;;;7.30;82.80;;;;;;5070295;28;20032;-73
2021/01/23 11:24:34;;;;;;;5.70;3.00;;;6.70;83.60;;;;;;5070079;28;20100;-73
2021/01/23 11:26:59;;;;;;;5.20;3.15;;;6.40;88.10;;;;;;5052624;28;20108;-73
2021/01/23 11:29:26;;;;;;;7.50;3.78;;;6.50;86.80;;;;;;5052253;28;20025;-73
2021/01/23 11:31:51;;;;;;;3.80;2.92;;;6.20;88.90;;;;;;5052549;28;20020;-73
2021/01/23 11:34:17;;;;;;;3.95;2.85;;;6.20;90.00;;;;;;5070107;28;20074;-73
2021/01/23 11:36:43;;;;;;;4.22;3.50;;;6.10;90.90;;;;;;5069396;28;20028;-73
2021/01/23 11:39:09;;;;;;;2.97;2.70;;;6.10;89.50;;;;;;5052335;28;20139;-73
2021/01/23 11:41:34;;;;;;;4.65;3.40;;;6.00;88.90;;;;;;5052384;28;20500;-73
2021/01/23 11:44:00;;;;;;;8.55;3.38;;;5.70;91.00;;;;;;5070342;28;20086;-72
2021/01/23 11:46:27;;;;;;;5.35;3.67;;;5.60;92.60;;;;;;5070113;28;20025;-73
2021/01/23 11:48:53;;;;;;;12.63;5.15;;;5.60;92.50;;;;;;5070274;28;20071;-73
2021/01/23 11:51:18;;;;;;;5.05;3.53;;;5.60;93.00;;;;;;5069968;28;20067;-73
2021/01/23 11:53:44;;;;;;;4.38;3.22;;;5.70;93.20;;;;;;5070156;28;20048;-73
2021/01/23 11:56:10;;;;;;;4.68;2.95;;;5.70;92.60;;;;;;5070348;28;20021;-73
2021/01/23 11:58:36;;;;;;;6.32;3.35;;;5.50;92.10;;;;;;5056201;28;20029;-73
2021/01/23 12:01:02;;;;;;;7.40;4.10;;;5.40;93.50;;;;;;5055655;28;20301;-73
2021/01/23 12:03:28;;;;;;;5.80;3.40;;;5.40;95.00;;;;;;5073646;28;20064;-73
2021/01/23 12:05:54;;;;;;;5.85;3.30;;;5.40;95.00;;;;;;5055373;28;20025;-73
2021/01/23 12:08:19;;;;;;;5.47;3.30;;;5.30;94.50;;;;;;5055981;28;20028;-73
2021/01/23 12:10:45;;;;;;;6.10;3.63;;;5.10;94.50;;;;;;5073583;28;20483;-73
2021/01/23 12:13:11;;;;;;;6.57;4.38;;;5.10;96.40;;;;;;5073617;28;20074;-73
2021/01/23 12:15:37;;;;;;;6.40;4.05;;;4.90;95.20;;;;;;5055919;28;20024;-73
2021/01/23 12:18:03;;;;;;;5.43;3.72;;;4.90;95.80;;;;;;5055554;28;20024;-73
2021/01/23 12:20:30;;;;;;;10.95;4.78;;;4.80;95.90;;;;;;5038573;28;20021;-74
2021/01/23 12:22:56;;;;;;;10.50;3.45;;;4.80;97.20;;;;;;5055672;28;20131;-74
2021/01/23 12:25:22;;;;;;;4.50;3.42;;;5.00;99.10;;;;;;5055055;28;20112;-74
2021/01/23 12:27:48;;;;;;;8.60;4.57;;;5.20;98.90;;;;;;5056069;28;20052;-73
2021/01/23 12:30:15;;;;;;;7.60;3.50;;;5.00;96.10;;;;;;5055213;28;20483;-74
2021/01/23 12:32:41;;;;;;;5.50;3.20;;;5.20;97.00;;;;;;5056969;28;20082;-73
2021/01/23 12:35:09;;;;;;;7.10;3.30;;;5.30;96.10;;;;;;5073808;28;20112;-73
2021/01/23 12:37:36;;;;;;;4.47;3.25;;;5.30;96.20;;;;;;5074525;28;20021;-73
2021/01/23 12:40:06;;;;;;;6.07;3.22;;;5.30;97.00;;;;;;5073308;28;20395;-74
2021/01/23 12:42:33;;;;;;;4.97;3.63;;;5.60;96.90;;;;;;5055211;28;20108;-74
2021/01/23 12:44:59;;;;;;;5.82;3.50;;;5.60;95.60;;;;;;5054869;28;20039;-73
2021/01/23 12:47:25;;;;;;;7.00;3.25;;;5.70;96.50;;;;;;5074293;28;20020;-73
2021/01/23 12:49:51;;;;;;;4.05;3.65;;;5.60;94.30;;;;;;5055413;28;20028;-74
2021/01/23 12:52:17;;;;;;;7.82;3.42;;;5.50;94.20;;;;;;5038702;28;20017;-73
2021/01/23 12:54:44;;;;;;;8.20;3.38;;;5.40;95.20;;;;;;5073307;28;20498;-74
2021/01/23 12:57:10;;;;;;;4.97;2.97;;;5.40;96.10;;;;;;5073151;28;20021;-74
2021/01/23 12:59:35;;;;;;;7.00;3.40;;;5.60;97.60;;;;;;5038677;28;20333;-74
2021/01/23 13:02:01;;;;;;;5.43;3.97;;;5.30;94.10;;;;;;5072477;28;20100;-73